Latest Weather Observations for Dum In Mirrie

IDD60901

Issued at 1:41 pm CST Wednesday 4 March 2015 (issued every 10 minutes, with the page automatically refreshed every 10 minutes)

About weather observations | Map of Darwin area stations | Latest observations for Darwin area | Other Formats
Station Details ID: 014277 Name: DUM IN MIRRIE AIRSTRIP Lat: -12.63 Lon: 130.37 Height: 3.5 m
Data from the previous 72 hours. | See also: Recent months at Dum In Mirrie
Date/Time
CST
Tmp

°C
App
Tmp
°C
Dew
Point
°C
Rel
Hum
%
Delta-T

°C
Wind Press
QNH
hPa
Press
MSL
hPa
Rain
since
9 am
mm
Dir
 
Spd
km/h
Gust
km/h
Spd
kts
Gust
kts
04/01:30pm 31.3 36.6 25.9 73 3.9 NNW 9 17 5 9 1007.2 1007.2 0.2
04/01:00pm 31.7 37.1 26.0 72 4.1 NNW 9 15 5 8 1007.4 1007.4 0.2
04/12:30pm 31.1 35.7 24.7 68 4.5 N 9 17 5 9 1007.8 1007.8 0.2
04/12:00pm 30.8 35.4 24.7 70 4.3 NNW 9 15 5 8 1008.1 1008.1 0.2
04/11:30am 30.9 35.5 25.3 72 4.0 N 11 17 6 9 1008.1 1008.1 0.2
04/11:00am 30.8 35.8 25.4 73 3.8 N 9 17 5 9 1008.4 1008.4 0.2
04/10:30am 30.1 34.2 24.5 72 3.9 N 11 19 6 10 1008.5 1008.5 0.2
04/10:00am 30.1 35.0 25.8 78 3.1 NNE 11 15 6 8 1008.3 1008.3 0.2
04/09:30am 29.5 34.6 25.0 77 3.2 N 7 13 4 7 1008.1 1008.1 0.0
04/09:00am 28.9 33.8 24.7 78 2.9 NNE 7 13 4 7 1007.9 1007.9 1.2
04/08:30am 29.1 34.2 24.9 78 2.9 NNE 7 13 4 7 1007.6 1007.6 1.2
04/08:00am 28.6 34.1 25.6 84 2.1 NNE 7 11 4 6 1007.4 1007.4 1.2
04/07:30am 27.8 33.5 25.6 88 1.6 NNE 6 11 3 6 1007.1 1007.1 1.2
04/07:00am 26.9 33.0 25.1 90 1.3 NE 2 4 1 2 1006.9 1006.9 1.2
04/06:30am 27.1 32.7 24.9 88 1.5 NNE 4 6 2 3 1006.4 1006.4 1.2
04/06:00am 27.6 32.9 25.0 86 1.8 NNE 6 11 3 6 1006.0 1006.0 1.2
04/05:30am 27.7 32.9 25.1 86 1.8 NNE 7 13 4 7 1005.7 1005.7 1.2
04/05:00am 27.6 32.9 25.2 87 1.7 NNE 7 13 4 7 1005.4 1005.4 1.2
04/04:30am 27.6 32.9 25.2 87 1.7 NNE 7 15 4 8 1005.2 1005.2 1.2
04/04:00am 27.6 32.3 25.0 86 1.8 N 9 15 5 8 1005.0 1005.0 1.2
04/03:30am 27.6 32.5 25.2 87 1.7 NNE 9 19 5 10 1005.3 1005.3 1.2
04/03:00am 27.6 32.3 25.0 86 1.8 N 9 15 5 8 1005.6 1005.6 1.2
04/02:30am 27.5 32.3 25.1 87 1.7 N 9 17 5 9 1005.8 1005.8 1.2
04/02:00am 26.9 32.5 25.5 92 1.0 NE 6 7 3 4 1006.2 1006.2 1.2
04/01:30am 26.6 32.3 25.6 94 0.7 NE 6 9 3 5 1006.3 1006.3 1.2
04/01:00am 26.7 32.5 25.8 95 0.6 ENE 6 9 3 5 1006.2 1006.2 1.2
04/12:30am 26.4 32.0 25.5 95 0.6 ENE 6 7 3 4 1006.4 1006.4 1.2
04/12:00am 26.4 32.4 25.5 95 0.6 E 4 7 2 4 1006.6 1006.6 1.2
 
Date/Time
CST
Tmp

°C
App
Tmp
°C
Dew
Point
°C
Rel
Hum
%
Delta-T

°C
Wind Press
QNH
hPa
Press
MSL
hPa
Rain
since
9 am
mm
Dir
 
Spd
km/h
Gust
km/h
Spd
kts
Gust
kts
03/11:30pm 26.5 32.5 25.5 94 0.7 NE 4 6 2 3 1006.5 1006.5 1.2
03/11:00pm 26.8 32.2 25.4 92 1.0 NE 7 15 4 8 1006.6 1006.6 1.0
03/10:30pm 27.0 31.0 25.0 89 1.4 NNE 13 22 7 12 1006.6 1006.6 1.0
03/10:00pm 27.2 31.4 24.8 87 1.7 NNE 11 17 6 9 1006.5 1006.5 1.0
03/09:30pm 27.4 32.3 25.2 88 1.5 NE 9 17 5 9 1006.3 1006.3 1.0
03/09:00pm 27.7 32.5 25.1 86 1.8 NE 9 15 5 8 1005.8 1005.8 1.0
03/08:30pm 27.7 32.6 25.3 87 1.7 ENE 9 15 5 8 1005.5 1005.5 1.0
03/08:00pm 27.8 32.8 25.4 87 1.7 E 9 13 5 7 1005.1 1005.1 1.0
03/07:30pm 28.3 33.8 26.1 88 1.6 E 9 15 5 8 1004.9 1004.9 1.0
03/07:00pm 28.5 33.8 25.9 86 1.8 E 9 15 5 8 1004.1 1004.1 1.0
03/06:30pm 28.9 33.2 24.9 79 2.8 ENE 11 22 6 12 1004.2 1004.2 1.0
03/06:00pm 29.5 33.2 25.7 80 2.7 ENE 17 26 9 14 1003.0 1003.0 1.0
03/05:30pm 30.5 34.9 25.1 73 3.8 NE 11 19 6 10 1003.2 1003.2 1.0
03/05:00pm 30.8 35.1 24.9 71 4.1 ENE 11 19 6 10 1003.4 1003.4 1.0
03/04:30pm 30.8 35.1 24.9 71 4.2 ENE 11 20 6 11 1003.5 1003.5 1.0
03/04:00pm 30.5 34.4 24.9 72 3.9 ENE 13 24 7 13 1003.5 1003.5 1.0
03/03:30pm 30.7 33.6 24.4 69 4.4 ENE 17 24 9 13 1003.3 1003.3 1.0
03/03:00pm 30.9 34.4 24.8 70 4.3 E 15 24 8 13 1003.7 1003.7 1.0
03/02:30pm 30.7 34.2 24.8 71 4.2 E 15 24 8 13 1004.0 1004.0 1.0
03/02:00pm 30.0 34.0 24.4 72 3.9 ENE 11 17 6 9 1004.5 1004.5 1.0
03/01:30pm 31.0 35.4 25.6 73 3.8 ENE 13 20 7 11 1005.1 1005.1 1.0
03/01:00pm 30.6 34.3 25.2 73 3.8 ENE 15 24 8 13 1005.5 1005.5 1.0
03/12:30pm 30.1 33.8 25.2 75 3.5 ENE 15 20 8 11 1005.8 1005.8 1.0
03/12:00pm 29.9 33.1 25.0 75 3.4 E 17 24 9 13 1005.9 1005.9 1.0
03/11:30am 29.1 33.1 25.1 79 2.8 E 13 22 7 12 1006.2 1006.2 0.8
03/11:00am 27.4 31.8 25.0 87 1.7 ENE 11 17 6 9 1006.5 1006.5 0.8
03/10:30am 27.8 31.5 24.6 83 2.2 E 13 20 7 11 1006.6 1006.6 0.2
03/10:00am 28.0 32.1 24.6 82 2.4 ENE 11 22 6 12 1006.6 1006.6 0.0
03/09:30am 26.9 30.9 24.4 86 1.7 E 11 19 6 10 1006.3 1006.3 0.0
03/09:00am 26.4 30.4 24.4 89 1.4 ESE 11 19 6 10 1005.7 1005.7 11.8
03/08:30am 26.4 30.4 24.4 89 1.4 E 11 19 6 10 1005.5 1005.5 11.8
03/08:00am 25.9 31.0 24.7 93 0.8 E 6 9 3 5 1005.2 1005.2 11.8
03/07:30am 24.9 30.2 24.4 97 0.3 E 4 6 2 3 1004.8 1004.8 11.8
03/07:00am 24.4 29.2 24.1 98 0.2 ESE 6 9 3 5 1004.4 1004.4 11.8
03/06:30am 24.4 30.3 24.1 98 0.2 CALM 0 0 0 0 1004.4 1004.4 11.8
03/06:00am 24.3 29.7 23.8 97 0.3 N 2 4 1 2 1003.9 1003.9 11.8
03/05:30am 24.5 29.2 24.0 97 0.3 ESE 6 9 3 5 1003.4 1003.4 11.8
03/05:00am 24.6 29.7 24.1 97 0.3 E 4 7 2 4 1003.3 1003.3 11.8
03/04:30am 24.6 29.4 24.1 97 0.3 ESE 6 9 3 5 1003.3 1003.3 11.8
03/04:00am 24.6 29.3 23.9 96 0.5 SE 6 9 3 5 1002.9 1002.9 11.8
03/03:30am 24.6 29.3 23.9 96 0.5 SSE 6 9 3 5 1003.5 1003.5 11.8
03/03:00am 24.4 30.2 23.9 97 0.3 CALM 0 0 0 0 1003.5 1003.5 11.8
03/02:30am 24.6 30.1 24.1 97 0.3 SSE 2 6 1 3 1003.7 1003.7 11.8
03/02:00am 24.8 30.4 24.3 97 0.3 SSE 2 6 1 3 1004.4 1004.4 11.8
03/01:30am 24.7 29.8 24.0 96 0.5 SSW 4 9 2 5 1004.7 1004.7 11.8
03/01:00am 24.9 30.1 24.2 96 0.5 SSW 4 9 2 5 1005.0 1005.0 11.8
03/12:30am 25.0 30.0 24.5 97 0.3 S 6 11 3 6 1005.1 1005.1 11.8
03/12:00am 25.1 30.6 24.6 97 0.3 SSE 4 9 2 5 1005.3 1005.3 11.8
 
Date/Time
CST
Tmp

°C
App
Tmp
°C
Dew
Point
°C
Rel
Hum
%
Delta-T

°C
Wind Press
QNH
hPa
Press
MSL
hPa
Rain
since
9 am
mm
Dir
 
Spd
km/h
Gust
km/h
Spd
kts
Gust
kts
02/11:30pm 25.1 30.6 24.6 97 0.3 SSE 4 9 2 5 1005.5 1005.5 11.8
02/11:00pm 25.2 31.0 24.5 96 0.5 ESE 2 6 1 3 1005.6 1005.6 11.6
02/10:30pm 25.3 30.1 24.4 95 0.6 ESE 7 15 4 8 1005.7 1005.7 11.2
02/10:00pm 25.6 31.4 25.1 97 0.3 SE 4 9 2 5 1005.4 1005.4 11.2
02/09:30pm 25.8 31.7 25.3 97 0.4 ESE 4 4 2 2 1005.2 1005.2 11.2
02/09:00pm 25.7 31.5 25.2 97 0.3 S 4 7 2 4 1005.0 1005.0 11.2
02/08:30pm 25.3 31.3 24.8 97 0.3 E 2 2 1 1 1004.0 1004.0 11.2
02/08:00pm 25.4 31.8 24.9 97 0.3 CALM 0 0 0 0 1004.2 1004.2 11.2
02/07:30pm 25.3 30.9 24.8 97 0.3 ESE 4 6 2 3 1003.9 1003.9 11.0
02/07:00pm 25.2 31.0 24.5 96 0.5 E 2 6 1 3 1003.4 1003.4 10.6
02/06:30pm 25.1 30.1 23.9 93 0.8 NE 4 4 2 2 1003.0 1003.0 9.8
02/06:00pm 25.2 30.2 23.8 92 1.0 NE 4 6 2 3 1003.0 1003.0 7.6
02/05:30pm 25.9 30.9 24.5 92 1.0 ENE 6 9 3 5 1002.9 1002.9 6.2
02/05:00pm 26.8 32.4 24.8 89 1.4 SE 4 6 2 3 1002.7 1002.7 5.4
02/04:30pm 26.4 30.9 23.7 85 1.9 SW 6 11 3 6 1002.6 1002.6 5.4
02/04:00pm 26.1 30.9 24.1 89 1.4 WSW 6 7 3 4 1002.6 1002.6 5.4
02/03:30pm 27.1 30.6 24.2 84 2.0 SW 13 24 7 13 1003.4 1003.4 3.4
02/03:00pm 27.3 31.9 24.2 83 2.1 WSW 7 22 4 12 1002.9 1002.9 3.4
02/02:30pm 27.6 30.7 25.4 88 1.5 WSW 19 39 10 21 1003.8 1003.8 3.4
02/02:00pm 28.2 31.8 24.4 80 2.6 W 13 24 7 13 1004.2 1004.2 3.4
02/01:30pm 27.7 32.6 25.9 90 1.3 WNW 11 22 6 12 1004.8 1004.8 3.4
02/01:00pm 27.1 31.9 25.1 89 1.4 WNW 9 19 5 10 1004.8 1004.8 3.4
02/12:30pm 27.0 32.2 24.8 88 1.5 WNW 6 11 3 6 1005.1 1005.1 3.4
02/12:00pm 25.7 29.9 24.1 91 1.1 NW 9 19 5 10 1005.9 1005.9 3.2
02/11:30am 25.5 29.2 24.6 95 0.6 NNW 13 26 7 14 1006.8 1006.8 2.4
02/11:00am 25.5 28.9 23.4 88 1.4 NE 11 26 6 14 1006.9 1006.9 2.0
02/10:30am 27.0 30.6 23.0 79 2.7 SSW 9 20 5 11 1005.9 1005.9 1.0
02/10:00am 29.7 35.6 26.7 84 2.2 W 9 19 5 10 1006.1 1006.1 0.0
02/09:30am 30.5 36.9 26.7 80 2.7 WSW 6 13 3 7 1006.2 1006.2 0.0
02/09:00am 29.9 36.3 26.7 83 2.3 WSW 6 13 3 7 1006.2 1006.2 1.0
02/08:30am 29.4 35.6 26.6 85 2.0 W 7 11 4 6 1006.1 1006.1 1.0
02/08:00am 29.3 36.1 26.1 83 2.3 WSW 2 7 1 4 1005.6 1005.6 1.0
02/07:30am 29.4 34.2 26.2 83 2.3 W 13 20 7 11 1005.2 1005.2 1.0
02/07:00am 29.3 34.1 26.3 84 2.1 W 13 20 7 11 1004.8 1004.8 1.0
02/06:30am 29.3 34.0 26.1 83 2.3 W 13 22 7 12 1004.7 1004.7 1.0
02/06:00am 29.3 33.5 25.9 82 2.4 W 15 22 8 12 1004.3 1004.3 1.0
02/05:30am 29.2 33.8 26.0 83 2.3 W 13 20 7 11 1004.2 1004.2 1.0
02/05:00am 29.2 34.0 26.2 84 2.1 W 13 22 7 12 1004.1 1004.1 1.0
02/04:30am 29.1 33.8 26.1 84 2.1 W 13 22 7 12 1004.0 1004.0 1.0
02/04:00am 29.0 34.5 26.2 85 2.0 W 9 19 5 10 1003.9 1003.9 1.0
02/03:30am 29.0 34.3 26.4 86 1.9 W 11 19 6 10 1004.0 1004.0 1.0
02/03:00am 29.0 35.1 26.2 85 2.0 W 6 13 3 7 1004.3 1004.3 1.0
02/02:30am 29.1 34.2 26.1 84 2.1 W 11 15 6 8 1004.7 1004.7 1.0
02/02:00am 29.3 34.5 26.3 84 2.1 W 11 20 6 11 1004.9 1004.9 1.0
02/01:30am 29.2 35.0 25.8 82 2.4 WSW 6 13 3 7 1005.6 1005.6 1.0
02/01:00am 29.1 35.2 25.7 82 2.4 SW 4 9 2 5 1006.5 1006.5 1.0
02/12:30am 28.9 34.1 25.7 83 2.3 W 9 15 5 8 1006.2 1006.2 1.0
02/12:00am 28.8 34.2 26.0 85 2.0 W 9 15 5 8 1006.1 1006.1 1.0
 
Date/Time
CST
Tmp

°C
App
Tmp
°C
Dew
Point
°C
Rel
Hum
%
Delta-T

°C
Wind Press
QNH
hPa
Press
MSL
hPa
Rain
since
9 am
mm
Dir
 
Spd
km/h
Gust
km/h
Spd
kts
Gust
kts
01/11:30pm 28.7 34.3 26.3 87 1.7 W 9 19 5 10 1006.5 1006.5 1.0
01/11:00pm 28.3 34.3 26.1 88 1.6 WSW 6 13 3 7 1007.0 1007.0 1.0
01/10:30pm 28.2 34.2 26.0 88 1.6 WNW 6 13 3 7 1006.6 1006.6 0.8
01/10:00pm 28.9 34.7 25.7 83 2.3 W 6 9 3 5 1007.1 1007.1 0.0
01/09:30pm 29.4 34.9 25.6 80 2.7 W 7 13 4 7 1006.6 1006.6 0.0
01/09:00pm 29.5 34.6 25.5 79 2.8 W 9 15 5 8 1006.7 1006.7 0.0
01/08:30pm 29.2 34.6 25.2 79 2.8 NW 6 11 3 6 1005.3 1005.3 0.0
01/08:00pm 29.5 34.6 25.5 79 2.8 WSW 9 24 5 13 1005.2 1005.2 0.0
01/07:30pm 29.6 35.0 26.0 81 2.6 WSW 9 22 5 12 1005.1 1005.1 0.0
01/07:00pm 29.8 34.2 26.2 81 2.6 W 15 22 8 12 1005.1 1005.1 0.0
01/06:30pm 30.1 33.2 25.4 76 3.3 W 19 30 10 16 1004.5 1004.5 0.0
01/06:00pm 30.4 33.4 25.5 75 3.5 WSW 20 30 11 16 1004.4 1004.4 0.0
01/05:30pm 30.3 33.9 26.2 79 2.9 W 19 28 10 15 1003.9 1003.9 0.0
01/05:00pm 29.8 34.6 26.2 81 2.6 WSW 13 20 7 11 1003.7 1003.7 0.0
01/04:30pm 29.6 34.9 26.4 83 2.3 W 11 19 6 10 1004.1 1004.1 0.0
01/04:00pm 30.0 35.3 26.4 81 2.6 W 11 20 6 11 1003.7 1003.7 0.0
01/03:30pm 30.1 34.3 25.4 76 3.3 W 13 22 7 12 1004.1 1004.1 0.0
01/03:00pm 30.1 34.2 25.2 75 3.5 W 13 24 7 13 1003.9 1003.9 0.0
01/02:30pm 31.9 37.0 26.7 74 3.8 W 13 24 7 13 1004.5 1004.5 0.0
01/02:00pm 31.9 37.1 26.9 75 3.6 W 13 20 7 11 1004.9 1004.9 0.0

Latest Capital City Observations: Canberra | Sydney | Melbourne | Brisbane | Adelaide | Perth | Hobart | Darwin

Other Formats:

Comma delimited format used in spreadsheet applications
http://www.bom.gov.au/fwo/IDD60901/IDD60901.94116.axf

JavaScript Object Notation format (JSON) in row-major order
http://www.bom.gov.au/fwo/IDD60901/IDD60901.94116.json